createdAt,value
2018-09-11T00:01:21.128Z,3.93
2018-09-11T00:03:50.219Z,3.57
2018-09-11T00:06:19.279Z,3.63
2018-09-11T00:08:48.372Z,4.13
2018-09-11T00:11:17.407Z,3.80
2018-09-11T00:13:46.468Z,3.40
2018-09-11T00:16:15.506Z,3.40
2018-09-11T00:18:44.604Z,3.57
2018-09-11T00:21:13.673Z,3.70
2018-09-11T00:23:42.684Z,3.37
2018-09-11T00:26:11.821Z,3.57
2018-09-11T00:28:40.872Z,3.20
2018-09-11T00:31:09.890Z,3.57
2018-09-11T00:33:39.150Z,3.60
2018-09-11T00:36:08.258Z,3.53
2018-09-11T00:38:37.338Z,3.60
2018-09-11T00:41:06.398Z,4.03
2018-09-11T00:43:35.522Z,4.10
2018-09-11T00:46:04.615Z,3.77
2018-09-11T00:48:33.724Z,3.83
2018-09-11T00:51:02.815Z,3.90
2018-09-11T00:53:32.041Z,3.13
2018-09-11T00:56:01.316Z,4.00
2018-09-11T00:58:30.299Z,3.90
2018-09-11T01:00:59.373Z,3.63
2018-09-11T01:03:28.528Z,3.67
2018-09-11T01:05:57.645Z,4.53
2018-09-11T01:08:26.689Z,3.90
2018-09-11T01:10:55.790Z,3.80
2018-09-11T01:13:24.860Z,3.73
2018-09-11T01:15:53.918Z,3.30
2018-09-11T01:18:22.964Z,3.70
2018-09-11T01:20:52.068Z,3.80
2018-09-11T01:23:21.202Z,3.87
2018-09-11T01:25:50.303Z,3.57
2018-09-11T01:28:22.386Z,3.83
2018-09-11T01:30:51.523Z,3.67
2018-09-11T01:33:20.616Z,3.80
2018-09-11T01:35:49.733Z,3.37
2018-09-11T01:38:18.853Z,3.90
2018-09-11T01:40:47.882Z,3.93
2018-09-11T01:43:16.995Z,3.70
2018-09-11T01:45:45.990Z,3.30
2018-09-11T01:48:15.163Z,4.00
2018-09-11T01:50:44.272Z,3.53
2018-09-11T01:53:13.291Z,3.40
2018-09-11T01:55:42.420Z,3.20
2018-09-11T01:58:11.452Z,3.10
2018-09-11T02:00:40.526Z,3.73
2018-09-11T02:03:09.509Z,3.50
2018-09-11T02:05:38.612Z,3.07
2018-09-11T02:08:07.673Z,3.67
2018-09-11T02:10:36.729Z,3.43
2018-09-11T02:13:06.034Z,2.67
2018-09-11T02:15:35.204Z,3.10
2018-09-11T02:18:04.334Z,3.53
2018-09-11T02:20:33.438Z,3.53
2018-09-11T02:23:02.500Z,3.60
2018-09-11T02:25:31.642Z,3.00
2018-09-11T02:28:00.692Z,3.30
2018-09-11T02:30:29.725Z,3.50
2018-09-11T02:32:58.753Z,3.67
2018-09-11T02:35:27.757Z,2.97
2018-09-11T02:37:56.915Z,3.50
2018-09-11T02:40:25.973Z,3.13
2018-09-11T02:42:54.976Z,2.77
2018-09-11T02:45:24.640Z,2.97
2018-09-11T02:47:54.899Z,3.70
2018-09-11T02:50:23.977Z,3.63
2018-09-11T02:52:53.008Z,3.27
2018-09-11T02:55:22.118Z,3.33
2018-09-11T02:57:51.126Z,3.13
2018-09-11T03:00:20.306Z,3.70
2018-09-11T03:02:49.424Z,3.67
2018-09-11T03:05:18.559Z,3.53
2018-09-11T03:07:47.578Z,3.77
2018-09-11T03:10:16.682Z,3.57
2018-09-11T03:12:45.780Z,3.53
2018-09-11T03:15:14.919Z,3.30
2018-09-11T03:17:44.053Z,4.10
2018-09-11T03:20:13.095Z,3.33
2018-09-11T03:22:42.174Z,3.73
2018-09-11T03:25:11.157Z,3.73
2018-09-11T03:27:40.218Z,3.63
2018-09-11T03:30:09.752Z,3.73
2018-09-11T03:32:38.837Z,3.60
2018-09-11T03:35:07.900Z,3.40
2018-09-11T03:37:37.010Z,3.40
2018-09-11T03:40:06.021Z,3.40
2018-09-11T03:42:35.036Z,4.00
2018-09-11T03:45:04.141Z,2.97
2018-09-11T03:47:33.250Z,3.80
2018-09-11T03:50:02.268Z,4.03
2018-09-11T03:52:31.368Z,3.50
2018-09-11T03:55:00.417Z,3.27
2018-09-11T03:57:29.492Z,3.00
2018-09-11T03:59:58.553Z,3.40
2018-09-11T04:02:27.599Z,3.93
2018-09-11T04:04:56.680Z,3.70
2018-09-11T04:07:25.845Z,2.87
2018-09-11T04:09:54.918Z,3.30
2018-09-11T04:12:23.971Z,3.63
2018-09-11T04:14:53.113Z,3.10
2018-09-11T04:17:26.253Z,3.70
2018-09-11T04:19:55.341Z,3.37
2018-09-11T04:22:24.417Z,3.47
2018-09-11T04:24:53.503Z,3.67
2018-09-11T04:27:22.577Z,4.10
2018-09-11T04:29:51.619Z,3.77
2018-09-11T04:32:20.625Z,3.63
2018-09-11T04:34:49.654Z,3.80
2018-09-11T04:37:18.738Z,3.43
2018-09-11T04:39:47.827Z,4.10
2018-09-11T04:42:16.874Z,3.17
2018-09-11T04:44:45.969Z,3.47
2018-09-11T04:47:15.008Z,3.50
2018-09-11T04:49:44.058Z,3.43
2018-09-11T04:52:13.193Z,3.40
2018-09-11T04:54:42.287Z,3.70
2018-09-11T04:57:11.304Z,3.20
2018-09-11T04:59:40.400Z,3.47
2018-09-11T05:02:09.402Z,3.40
2018-09-11T05:04:38.488Z,3.80
2018-09-11T05:07:07.583Z,3.23
2018-09-11T05:09:36.596Z,3.53
2018-09-11T05:12:05.718Z,3.70
2018-09-11T05:14:34.757Z,3.10
2018-09-11T05:17:03.796Z,3.30
2018-09-11T05:19:32.812Z,3.50
2018-09-11T05:22:01.868Z,3.17
2018-09-11T05:24:30.863Z,3.30
2018-09-11T05:26:59.953Z,3.50
2018-09-11T05:29:28.954Z,3.07
2018-09-11T05:31:58.134Z,2.67
2018-09-11T05:34:27.199Z,3.20
2018-09-11T05:36:56.168Z,3.00
2018-09-11T05:39:25.230Z,2.77
2018-09-11T05:41:54.213Z,3.20
2018-09-11T05:44:23.187Z,3.20
2018-09-11T05:46:52.236Z,3.20
2018-09-11T05:49:21.423Z,3.13
2018-09-11T05:51:50.401Z,2.23
2018-09-11T05:54:19.577Z,2.37
2018-09-11T05:56:48.683Z,2.87
2018-09-11T05:59:17.787Z,2.43
2018-09-11T06:01:46.948Z,2.53
2018-09-11T06:04:16.094Z,3.23
2018-09-11T06:06:45.118Z,3.00
2018-09-11T06:09:14.567Z,2.50
2018-09-11T06:11:43.652Z,3.20
2018-09-11T06:14:12.630Z,3.10
2018-09-11T06:16:41.638Z,2.30
2018-09-11T06:19:10.737Z,2.37
2018-09-11T06:21:39.827Z,2.50
2018-09-11T06:24:08.900Z,2.40
2018-09-11T06:26:37.858Z,2.70
2018-09-11T06:29:06.991Z,2.60
2018-09-11T06:31:36.035Z,2.50
2018-09-11T06:34:05.148Z,2.20
2018-09-11T06:36:34.216Z,2.50
2018-09-11T06:39:03.367Z,2.60
2018-09-11T06:41:32.468Z,2.47
2018-09-11T06:44:01.495Z,2.53
2018-09-11T06:46:30.492Z,2.57
2018-09-11T06:48:59.563Z,2.50
2018-09-11T06:51:28.674Z,2.93
2018-09-11T06:53:57.673Z,2.80
2018-09-11T06:56:26.691Z,2.90
2018-09-11T06:58:55.809Z,2.57
2018-09-11T07:01:24.969Z,2.57
2018-09-11T07:03:53.975Z,2.80
2018-09-11T07:06:23.099Z,2.87
2018-09-11T07:08:52.171Z,3.20
2018-09-11T07:11:21.293Z,2.93
2018-09-11T07:13:50.364Z,2.80
2018-09-11T07:16:19.438Z,2.73
2018-09-11T07:18:48.543Z,2.70
2018-09-11T07:21:17.703Z,2.57
2018-09-11T07:23:46.747Z,3.30
2018-09-11T07:26:15.780Z,2.97
2018-09-11T07:28:44.823Z,2.97
2018-09-11T07:31:13.951Z,3.10
2018-09-11T07:33:43.636Z,2.50
2018-09-11T07:36:12.698Z,2.80
2018-09-11T07:38:41.733Z,3.10
2018-09-11T07:41:11.233Z,2.83
2018-09-11T07:43:40.335Z,3.03
2018-09-11T07:46:09.471Z,2.80
2018-09-11T07:48:38.540Z,2.50
2018-09-11T07:51:07.759Z,2.70
2018-09-11T07:53:36.839Z,2.50
2018-09-11T07:56:05.858Z,2.50
2018-09-11T07:58:34.966Z,2.37
2018-09-11T08:01:03.975Z,2.83
2018-09-11T08:03:33.089Z,2.53
2018-09-11T08:06:02.098Z,2.60
2018-09-11T08:08:31.382Z,2.80
2018-09-11T08:11:00.418Z,2.33
2018-09-11T08:13:29.640Z,2.27
2018-09-11T08:15:58.748Z,2.30
2018-09-11T08:18:27.893Z,2.90
2018-09-11T08:20:56.929Z,2.23
2018-09-11T08:23:26.044Z,2.43
2018-09-11T08:25:55.139Z,2.10
2018-09-11T08:28:24.176Z,2.57
2018-09-11T08:30:53.266Z,2.57
2018-09-11T08:33:22.352Z,2.43
2018-09-11T08:35:51.467Z,2.63
2018-09-11T08:38:20.494Z,2.40
2018-09-11T08:40:49.597Z,2.70
2018-09-11T08:43:18.884Z,2.40
2018-09-11T08:45:47.860Z,2.57
2018-09-11T08:48:16.899Z,2.60
2018-09-11T08:50:45.978Z,2.60
2018-09-11T08:53:15.237Z,2.23
2018-09-11T08:55:44.311Z,2.37
2018-09-11T08:58:13.384Z,2.50
2018-09-11T09:00:42.353Z,2.13
2018-09-11T09:03:11.453Z,2.37
2018-09-11T09:05:40.453Z,2.57
2018-09-11T09:08:09.438Z,1.90
2018-09-11T09:10:38.467Z,2.37
2018-09-11T09:13:07.560Z,2.37
2018-09-11T09:15:36.616Z,2.23
2018-09-11T09:18:05.684Z,2.33
2018-09-11T09:20:34.755Z,2.33
2018-09-11T09:23:03.853Z,2.40
2018-09-11T09:25:32.849Z,2.40
2018-09-11T09:28:01.945Z,2.07
2018-09-11T09:30:30.995Z,2.10
2018-09-11T09:33:00.024Z,1.90
2018-09-11T09:35:29.081Z,2.50
2018-09-11T09:37:58.231Z,2.67
2018-09-11T09:40:27.306Z,2.33
2018-09-11T09:42:56.342Z,2.60
2018-09-11T09:45:25.384Z,2.60
2018-09-11T09:47:54.390Z,2.20
2018-09-11T09:50:23.444Z,2.50
2018-09-11T09:52:52.556Z,2.50
2018-09-11T09:55:21.667Z,2.33
2018-09-11T10:00:39.002Z,2.10
2018-09-11T10:03:08.038Z,2.60
2018-09-11T10:05:37.165Z,2.30
2018-09-11T10:08:06.414Z,2.10
2018-09-11T10:10:35.437Z,2.50
2018-09-11T10:13:04.512Z,2.73
2018-09-11T10:15:33.619Z,2.17
2018-09-11T10:18:02.689Z,2.50
2018-09-11T10:20:31.704Z,2.70
2018-09-11T10:23:00.747Z,2.73
2018-09-11T10:25:29.839Z,2.80
2018-09-11T10:27:58.888Z,2.53
2018-09-11T10:30:27.938Z,2.70
2018-09-11T10:32:57.029Z,2.73
2018-09-11T10:35:26.002Z,2.60
2018-09-11T10:37:55.054Z,2.70
2018-09-11T10:40:24.157Z,2.70
2018-09-11T10:42:53.252Z,2.70
2018-09-11T10:45:22.279Z,2.70
2018-09-11T10:47:51.377Z,2.50
2018-09-11T10:50:20.463Z,2.50
2018-09-11T10:52:49.507Z,2.30
2018-09-11T10:55:18.582Z,2.50
2018-09-11T10:57:47.648Z,2.70
2018-09-11T11:00:16.759Z,2.57
2018-09-11T11:02:45.779Z,2.60
2018-09-11T11:05:14.802Z,2.20
2018-09-11T11:07:43.867Z,2.30
2018-09-11T11:10:13.002Z,2.30
2018-09-11T11:12:42.094Z,2.13
2018-09-11T11:15:11.095Z,2.30
2018-09-11T11:17:40.229Z,2.87
2018-09-11T11:20:09.280Z,2.70
2018-09-11T11:22:38.345Z,2.20
2018-09-11T11:25:07.410Z,2.60
2018-09-11T11:27:36.423Z,2.27
2018-09-11T11:30:15.840Z,2.60
2018-09-11T11:32:44.820Z,2.60
2018-09-11T11:35:13.944Z,3.20
2018-09-11T11:37:42.957Z,2.53
2018-09-11T11:40:12.202Z,2.47
2018-09-11T11:42:41.363Z,2.80
2018-09-11T11:45:10.401Z,2.40
2018-09-11T11:47:39.476Z,2.03
2018-09-11T11:50:08.538Z,3.00
2018-09-11T11:52:37.768Z,2.50
2018-09-11T11:55:06.924Z,2.40
2018-09-11T11:57:36.054Z,2.60
2018-09-11T12:00:05.122Z,2.53
2018-09-11T12:02:34.264Z,2.37
2018-09-11T12:05:03.362Z,2.30
2018-09-11T12:07:32.386Z,2.53
2018-09-11T12:10:01.484Z,2.90
2018-09-11T12:12:30.567Z,2.80
2018-09-11T12:14:59.768Z,2.90
2018-09-11T12:17:28.840Z,2.30
2018-09-11T12:19:57.844Z,2.43
2018-09-11T12:22:26.857Z,2.70
2018-09-11T12:24:55.904Z,2.53
2018-09-11T12:27:25.040Z,2.50
2018-09-11T12:29:54.224Z,2.70
2018-09-11T12:32:23.223Z,2.40
2018-09-11T12:34:52.511Z,3.07
2018-09-11T12:37:21.500Z,2.27
2018-09-11T12:39:50.592Z,2.60
2018-09-11T12:42:19.623Z,2.43
2018-09-11T12:44:48.664Z,2.60
2018-09-11T12:47:18.804Z,2.70
2018-09-11T12:49:47.644Z,2.30
2018-09-11T12:52:16.735Z,2.50
2018-09-11T12:54:45.765Z,2.50
2018-09-11T12:57:14.826Z,2.90
2018-09-11T12:59:43.897Z,2.57
2018-09-11T13:02:12.921Z,2.30
2018-09-11T13:04:41.907Z,2.40
2018-09-11T13:07:10.927Z,2.40
2018-09-11T13:09:39.932Z,2.47
2018-09-11T13:12:09.004Z,2.60
2018-09-11T13:14:38.047Z,2.60
2018-09-11T13:17:07.147Z,2.67
2018-09-11T13:19:36.144Z,2.90
2018-09-11T13:22:05.237Z,2.40
2018-09-11T13:24:34.365Z,2.70
2018-09-11T13:27:03.436Z,2.73
2018-09-11T13:29:32.459Z,2.87
2018-09-11T13:32:01.496Z,3.00
2018-09-11T13:34:30.532Z,2.90
2018-09-11T13:36:59.577Z,2.80
2018-09-11T13:39:28.626Z,2.83
2018-09-11T13:41:57.673Z,3.27
2018-09-11T13:44:26.745Z,2.77
2018-09-11T13:46:55.799Z,3.00
2018-09-11T13:49:25.004Z,2.90
2018-09-11T13:51:54.087Z,2.70
2018-09-11T13:54:23.191Z,2.70
2018-09-11T13:56:52.211Z,2.50
2018-09-11T13:59:21.279Z,2.70
2018-09-11T14:01:50.322Z,2.77
2018-09-11T14:04:19.396Z,3.20
2018-09-11T14:06:48.486Z,2.73
2018-09-11T14:09:17.598Z,2.87
2018-09-11T14:11:46.721Z,3.10
2018-09-11T14:14:15.733Z,3.00
2018-09-11T14:16:44.815Z,2.93
2018-09-11T14:19:13.874Z,2.70
2018-09-11T14:21:42.991Z,3.00
2018-09-11T14:24:12.147Z,2.70
2018-09-11T14:26:41.217Z,3.40
2018-09-11T14:29:10.287Z,2.77
2018-09-11T14:31:39.330Z,3.17
2018-09-11T14:34:08.390Z,2.93
2018-09-11T14:36:37.540Z,3.07
2018-09-11T14:39:08.477Z,3.40
2018-09-11T14:41:37.707Z,3.23
2018-09-11T14:44:06.834Z,3.37
2018-09-11T14:46:36.036Z,3.30
2018-09-11T14:49:05.222Z,3.07
2018-09-11T14:51:34.242Z,3.63
2018-09-11T14:54:03.323Z,3.27
2018-09-11T14:56:32.311Z,3.00
2018-09-11T14:59:01.308Z,3.13
2018-09-11T15:01:30.480Z,2.97
2018-09-11T15:03:59.609Z,3.07
2018-09-11T15:06:28.676Z,2.83
2018-09-11T15:08:57.770Z,3.30
2018-09-11T15:11:26.766Z,3.13
2018-09-11T15:13:55.864Z,3.27
2018-09-11T15:16:24.866Z,3.60
2018-09-11T15:18:53.995Z,3.50
2018-09-11T15:21:23.034Z,3.23
2018-09-11T15:23:52.091Z,3.63
2018-09-11T15:26:21.096Z,3.03
2018-09-11T15:28:50.435Z,3.30
2018-09-11T15:31:19.517Z,3.40
2018-09-11T15:33:48.732Z,3.10
2018-09-11T15:36:17.768Z,3.30
2018-09-11T15:38:46.785Z,2.87
2018-09-11T15:41:15.822Z,3.10
2018-09-11T15:43:44.864Z,3.40
2018-09-11T15:46:14.032Z,3.33
2018-09-11T15:48:43.192Z,3.33
2018-09-11T15:51:12.252Z,3.50
2018-09-11T15:53:41.288Z,3.20
2018-09-11T15:56:10.400Z,3.90
2018-09-11T15:58:39.501Z,3.67
2018-09-11T16:01:08.553Z,3.50
2018-09-11T16:03:37.585Z,3.33
2018-09-11T16:06:06.596Z,3.10
2018-09-11T16:08:35.668Z,3.20
2018-09-11T16:11:04.712Z,2.80
2018-09-11T16:13:33.820Z,3.00
2018-09-11T16:16:02.966Z,2.80
2018-09-11T16:18:32.230Z,2.97
2018-09-11T16:21:01.330Z,3.40
2018-09-11T16:23:30.402Z,3.13
2018-09-11T16:25:59.500Z,2.80
2018-09-11T16:28:28.624Z,3.20
2018-09-11T16:30:57.650Z,3.20
2018-09-11T16:33:26.692Z,3.07
2018-09-11T16:35:55.713Z,3.23
2018-09-11T16:38:24.754Z,2.80
2018-09-11T16:40:53.827Z,2.97
2018-09-11T16:43:22.879Z,4.07
2018-09-11T16:45:52.252Z,3.07
2018-09-11T16:48:21.287Z,4.03
2018-09-11T16:50:50.515Z,3.63
2018-09-11T16:53:19.576Z,3.20
2018-09-11T16:55:48.602Z,3.67
2018-09-11T16:58:17.628Z,3.60
2018-09-11T17:00:46.616Z,3.37
2018-09-11T17:03:16.310Z,3.60
2018-09-11T17:05:45.414Z,3.10
2018-09-11T17:08:14.471Z,3.67
2018-09-11T17:10:43.563Z,3.50
2018-09-11T17:13:12.605Z,3.47
2018-09-11T17:15:41.693Z,3.00
2018-09-11T17:18:10.791Z,3.63
2018-09-11T17:20:39.957Z,3.10
2018-09-11T17:23:09.066Z,3.17
2018-09-11T17:25:38.047Z,4.00
2018-09-11T17:28:07.272Z,2.93
2018-09-11T17:30:36.297Z,3.00
2018-09-11T17:33:05.382Z,3.67
2018-09-11T17:35:34.459Z,3.80
2018-09-11T17:38:03.562Z,3.53
2018-09-11T17:40:32.664Z,3.23
2018-09-11T17:43:01.701Z,3.03
2018-09-11T17:45:30.807Z,3.33
2018-09-11T17:47:59.966Z,3.37
2018-09-11T17:50:29.142Z,3.10
2018-09-11T17:52:58.246Z,3.73
2018-09-11T17:55:27.276Z,3.43
2018-09-11T17:57:56.286Z,3.60
2018-09-11T18:00:25.332Z,3.20
2018-09-11T18:02:54.421Z,3.13
2018-09-11T18:05:23.472Z,3.37
2018-09-11T18:07:52.570Z,3.17
2018-09-11T18:10:21.616Z,3.77
2018-09-11T18:12:50.672Z,3.60
2018-09-11T18:15:19.843Z,3.60
2018-09-11T18:17:48.856Z,3.50
2018-09-11T18:20:18.020Z,3.70
2018-09-11T18:22:47.168Z,3.50
2018-09-11T18:25:16.186Z,3.27
2018-09-11T18:27:45.332Z,3.80
2018-09-11T18:30:14.461Z,3.60
2018-09-11T18:32:43.499Z,3.37
2018-09-11T18:35:12.573Z,3.80
2018-09-11T18:37:41.591Z,3.37
2018-09-11T18:40:10.796Z,3.53
2018-09-11T18:42:39.849Z,3.33
2018-09-11T18:45:09.012Z,3.87
2018-09-11T18:47:38.154Z,3.77
2018-09-11T18:50:07.344Z,3.70
2018-09-11T18:52:36.652Z,3.50
2018-09-11T18:55:05.894Z,4.10
2018-09-11T18:57:35.057Z,3.90
2018-09-11T19:00:04.320Z,4.07
2018-09-11T19:02:33.511Z,3.67
2018-09-11T19:05:02.703Z,3.80
2018-09-11T19:07:31.841Z,3.40
2018-09-11T19:10:01.104Z,3.60
2018-09-11T19:12:30.236Z,4.30
2018-09-11T19:14:59.325Z,3.40
2018-09-11T19:17:28.454Z,3.50
2018-09-11T19:19:57.561Z,3.13
2018-09-11T19:22:26.779Z,3.73
2018-09-11T19:24:55.938Z,3.90
2018-09-11T19:27:25.065Z,4.10
2018-09-11T19:29:54.186Z,3.77
2018-09-11T19:32:23.447Z,3.73
2018-09-11T19:34:52.760Z,3.90
2018-09-11T19:37:21.946Z,3.67
2018-09-11T19:39:51.062Z,3.90
2018-09-11T19:42:20.222Z,3.93
2018-09-11T19:44:49.429Z,3.90
2018-09-11T19:47:18.697Z,4.40
2018-09-11T19:49:47.816Z,3.93
2018-09-11T19:52:16.909Z,3.37
2018-09-11T19:54:46.068Z,4.30
2018-09-11T19:57:15.162Z,3.97
2018-09-11T19:59:44.296Z,3.83
2018-09-11T20:02:13.391Z,3.70
2018-09-11T20:04:42.714Z,4.23
2018-09-11T20:07:11.909Z,3.63
2018-09-11T20:09:40.931Z,4.73
2018-09-11T20:12:10.026Z,4.33
2018-09-11T20:14:39.144Z,3.87
2018-09-11T20:17:08.211Z,3.60
2018-09-11T20:19:37.360Z,3.37
2018-09-11T20:22:09.440Z,4.03
2018-09-11T20:24:38.486Z,3.50
2018-09-11T20:27:07.858Z,4.07
2018-09-11T20:29:36.937Z,3.90
2018-09-11T20:32:06.148Z,3.30
2018-09-11T20:34:35.291Z,3.60
2018-09-11T20:37:04.312Z,3.90
2018-09-11T20:39:33.358Z,3.87
2018-09-11T20:42:02.364Z,4.00
2018-09-11T20:44:31.367Z,4.23
2018-09-11T20:47:00.901Z,3.83
2018-09-11T20:49:30.009Z,3.93
2018-09-11T20:51:59.204Z,3.90
2018-09-11T20:54:28.221Z,3.93
2018-09-11T20:56:57.281Z,3.80
2018-09-11T20:59:26.292Z,4.47
2018-09-11T21:01:55.396Z,4.03
2018-09-11T21:04:24.421Z,4.57
2018-09-11T21:06:53.539Z,3.67
2018-09-11T21:09:22.621Z,4.13
2018-09-11T21:11:51.578Z,3.70
2018-09-11T21:14:20.648Z,4.00
2018-09-11T21:16:49.696Z,3.97
2018-09-11T21:19:18.711Z,4.60
2018-09-11T21:21:47.807Z,4.07
2018-09-11T21:24:16.840Z,3.67
2018-09-11T21:26:45.955Z,4.40
2018-09-11T21:29:14.984Z,4.30
2018-09-11T21:31:44.027Z,4.43
2018-09-11T21:34:13.061Z,4.70
2018-09-11T21:36:42.161Z,4.63
2018-09-11T21:39:12.315Z,3.70
2018-09-11T21:41:41.364Z,3.70
2018-09-11T21:44:10.444Z,4.80
2018-09-11T21:46:39.495Z,4.43
2018-09-11T21:49:08.586Z,4.40
2018-09-11T21:51:37.616Z,4.87
2018-09-11T21:54:06.653Z,4.80
2018-09-11T21:56:35.719Z,4.10
2018-09-11T21:59:04.780Z,4.80
2018-09-11T22:01:38.937Z,4.20
2018-09-11T22:04:07.997Z,4.50
2018-09-11T22:06:37.016Z,5.17
2018-09-11T22:09:08.192Z,4.50
2018-09-11T22:11:38.279Z,5.40
2018-09-11T22:14:07.481Z,4.63
2018-09-11T22:16:36.567Z,4.30
2018-09-11T22:19:07.963Z,4.97
2018-09-11T22:21:37.671Z,4.77
2018-09-11T22:24:06.759Z,4.40
2018-09-11T22:26:35.974Z,4.50
2018-09-11T22:29:04.975Z,4.20
2018-09-11T22:31:34.050Z,4.53
2018-09-11T22:34:03.060Z,4.20
2018-09-11T22:36:32.112Z,4.57
2018-09-11T22:39:01.214Z,4.40
2018-09-11T22:41:30.351Z,5.37
2018-09-11T22:43:59.428Z,4.50
2018-09-11T22:46:28.519Z,4.43
2018-09-11T22:48:57.489Z,4.93
2018-09-11T22:51:26.508Z,4.17
2018-09-11T22:53:55.545Z,4.33
2018-09-11T22:56:24.563Z,4.17
2018-09-11T22:58:53.610Z,4.27
2018-09-11T23:01:22.612Z,4.30
2018-09-11T23:03:51.682Z,5.13
2018-09-11T23:06:20.924Z,4.30
2018-09-11T23:08:49.925Z,4.83
2018-09-11T23:11:18.981Z,4.87
2018-09-11T23:13:47.953Z,5.00
2018-09-11T23:16:17.041Z,4.30
2018-09-11T23:18:46.182Z,4.50
2018-09-11T23:21:15.267Z,4.63
2018-09-11T23:23:44.259Z,4.93
2018-09-11T23:26:13.264Z,4.30
2018-09-11T23:28:42.257Z,4.57
2018-09-11T23:31:11.305Z,4.10
2018-09-11T23:33:40.375Z,5.47
2018-09-11T23:36:09.392Z,4.70
2018-09-11T23:38:38.469Z,4.57
2018-09-11T23:41:07.764Z,4.67
2018-09-11T23:43:36.877Z,5.30
2018-09-11T23:46:06.057Z,4.33
2018-09-11T23:48:35.182Z,3.93
2018-09-11T23:51:04.160Z,5.27
2018-09-11T23:53:33.209Z,5.33
2018-09-11T23:56:02.231Z,6.47
2018-09-11T23:58:31.308Z,5.57
